sensor_id;sensor_type;location;lat;lon;timestamp;temperature;humidity
43673;DHT22;41723;49.326;8.430;2022-10-19T00:00:59;16.40;99.90
43673;DHT22;41723;49.326;8.430;2022-10-19T00:03:25;16.40;99.90
43673;DHT22;41723;49.326;8.430;2022-10-19T00:05:50;16.40;99.90
43673;DHT22;41723;49.326;8.430;2022-10-19T00:08:16;16.40;99.90
43673;DHT22;41723;49.326;8.430;2022-10-19T00:10:42;16.30;99.90
43673;DHT22;41723;49.326;8.430;2022-10-19T00:13:07;16.30;99.90
43673;DHT22;41723;49.326;8.430;2022-10-19T00:15:36;16.20;99.90
43673;DHT22;41723;49.326;8.430;2022-10-19T00:18:02;16.20;99.90
43673;DHT22;41723;49.326;8.430;2022-10-19T00:20:28;16.20;99.90
43673;DHT22;41723;49.326;8.430;2022-10-19T00:22:53;16.20;99.90
43673;DHT22;41723;49.326;8.430;2022-10-19T00:25:19;16.30;99.90
43673;DHT22;41723;49.326;8.430;2022-10-19T00:27:44;16.30;99.90
43673;DHT22;41723;49.326;8.430;2022-10-19T00:30:10;16.30;99.90
43673;DHT22;41723;49.326;8.430;2022-10-19T00:32:36;16.30;99.90
43673;DHT22;41723;49.326;8.430;2022-10-19T00:35:01;16.40;99.90
43673;DHT22;41723;49.326;8.430;2022-10-19T00:37:28;16.40;99.90
43673;DHT22;41723;49.326;8.430;2022-10-19T00:39:54;16.40;99.90
43673;DHT22;41723;49.326;8.430;2022-10-19T00:42:19;16.40;99.90
43673;DHT22;41723;49.326;8.430;2022-10-19T00:47:10;16.40;99.90
43673;DHT22;41723;49.326;8.430;2022-10-19T00:49:37;16.40;99.90
43673;DHT22;41723;49.326;8.430;2022-10-19T00:52:07;16.40;99.90
43673;DHT22;41723;49.326;8.430;2022-10-19T00:54:35;16.40;99.90
43673;DHT22;41723;49.326;8.430;2022-10-19T00:57:02;16.40;99.90
43673;DHT22;41723;49.326;8.430;2022-10-19T00:59:28;16.40;99.90
43673;DHT22;41723;49.326;8.430;2022-10-19T01:01:56;16.20;99.90
43673;DHT22;41723;49.326;8.430;2022-10-19T01:04:22;16.20;99.90
43673;DHT22;41723;49.326;8.430;2022-10-19T01:06:48;16.20;99.90
43673;DHT22;41723;49.326;8.430;2022-10-19T01:09:14;16.30;99.90
43673;DHT22;41723;49.326;8.430;2022-10-19T01:16:45;16.30;99.90
43673;DHT22;41723;49.326;8.430;2022-10-19T01:21:38;16.30;99.90
43673;DHT22;41723;49.326;8.430;2022-10-19T01:27:05;16.20;99.90
43673;DHT22;41723;49.326;8.430;2022-10-19T01:32:39;16.20;99.90
43673;DHT22;41723;49.326;8.430;2022-10-19T01:40:02;16.20;99.90
43673;DHT22;41723;49.326;8.430;2022-10-19T01:47:54;16.30;99.90
43673;DHT22;41723;49.326;8.430;2022-10-19T01:50:23;16.30;99.90
43673;DHT22;41723;49.326;8.430;2022-10-19T01:52:51;16.20;99.90
43673;DHT22;41723;49.326;8.430;2022-10-19T01:55:17;16.00;99.90
43673;DHT22;41723;49.326;8.430;2022-10-19T01:57:48;15.90;99.90
43673;DHT22;41723;49.326;8.430;2022-10-19T02:00:15;15.90;99.90
43673;DHT22;41723;49.326;8.430;2022-10-19T02:02:42;15.80;99.90
43673;DHT22;41723;49.326;8.430;2022-10-19T02:05:09;15.80;99.90
43673;DHT22;41723;49.326;8.430;2022-10-19T02:07:36;15.80;99.90
43673;DHT22;41723;49.326;8.430;2022-10-19T02:10:02;15.70;99.90
43673;DHT22;41723;49.326;8.430;2022-10-19T02:12:27;15.70;99.90
43673;DHT22;41723;49.326;8.430;2022-10-19T02:14:56;15.70;99.90
43673;DHT22;41723;49.326;8.430;2022-10-19T02:17:26;15.60;99.90
43673;DHT22;41723;49.326;8.430;2022-10-19T02:19:53;15.60;99.90
43673;DHT22;41723;49.326;8.430;2022-10-19T02:22:19;15.70;99.90
43673;DHT22;41723;49.326;8.430;2022-10-19T02:24:45;15.80;99.90
43673;DHT22;41723;49.326;8.430;2022-10-19T02:27:10;15.80;99.90
43673;DHT22;41723;49.326;8.430;2022-10-19T02:29:36;15.70;99.90
43673;DHT22;41723;49.326;8.430;2022-10-19T02:32:02;15.70;99.90
43673;DHT22;41723;49.326;8.430;2022-10-19T02:34:28;15.60;99.90
43673;DHT22;41723;49.326;8.430;2022-10-19T02:36:54;15.60;99.90
43673;DHT22;41723;49.326;8.430;2022-10-19T02:39:20;15.50;99.90
43673;DHT22;41723;49.326;8.430;2022-10-19T02:44:45;15.50;99.90
43673;DHT22;41723;49.326;8.430;2022-10-19T02:47:14;15.60;99.90
43673;DHT22;41723;49.326;8.430;2022-10-19T02:49:41;15.50;99.90
43673;DHT22;41723;49.326;8.430;2022-10-19T02:52:08;15.50;99.90
43673;DHT22;41723;49.326;8.430;2022-10-19T02:54:34;15.50;99.90
43673;DHT22;41723;49.326;8.430;2022-10-19T02:57:00;15.50;99.90
43673;DHT22;41723;49.326;8.430;2022-10-19T02:59:27;15.50;99.90
43673;DHT22;41723;49.326;8.430;2022-10-19T03:01:53;15.50;99.90
43673;DHT22;41723;49.326;8.430;2022-10-19T03:04:18;15.50;99.90
43673;DHT22;41723;49.326;8.430;2022-10-19T03:06:44;15.50;99.90
43673;DHT22;41723;49.326;8.430;2022-10-19T03:09:10;15.40;99.90
43673;DHT22;41723;49.326;8.430;2022-10-19T03:11:35;15.30;99.90
43673;DHT22;41723;49.326;8.430;2022-10-19T03:14:01;15.30;99.90
43673;DHT22;41723;49.326;8.430;2022-10-19T03:16:26;15.30;99.90
43673;DHT22;41723;49.326;8.430;2022-10-19T03:18:52;15.40;99.90
43673;DHT22;41723;49.326;8.430;2022-10-19T03:21:18;15.40;99.90
43673;DHT22;41723;49.326;8.430;2022-10-19T03:23:44;15.40;99.90
43673;DHT22;41723;49.326;8.430;2022-10-19T03:26:11;15.40;99.90
43673;DHT22;41723;49.326;8.430;2022-10-19T03:28:37;15.40;99.90
43673;DHT22;41723;49.326;8.430;2022-10-19T03:31:03;15.30;99.90
43673;DHT22;41723;49.326;8.430;2022-10-19T03:33:29;15.40;99.90
43673;DHT22;41723;49.326;8.430;2022-10-19T03:38:41;15.40;99.90
43673;DHT22;41723;49.326;8.430;2022-10-19T03:41:07;15.30;99.90
43673;DHT22;41723;49.326;8.430;2022-10-19T03:43:33;15.20;99.90
43673;DHT22;41723;49.326;8.430;2022-10-19T03:45:58;15.20;99.90
43673;DHT22;41723;49.326;8.430;2022-10-19T03:48:24;15.10;99.90
43673;DHT22;41723;49.326;8.430;2022-10-19T03:51:06;15.10;99.90
43673;DHT22;41723;49.326;8.430;2022-10-19T03:53:32;15.10;99.90
43673;DHT22;41723;49.326;8.430;2022-10-19T03:56:12;15.00;99.90
43673;DHT22;41723;49.326;8.430;2022-10-19T03:58:39;14.90;99.90
43673;DHT22;41723;49.326;8.430;2022-10-19T04:01:07;14.90;99.90
43673;DHT22;41723;49.326;8.430;2022-10-19T04:03:33;14.90;99.90
43673;DHT22;41723;49.326;8.430;2022-10-19T04:06:06;14.80;99.90
43673;DHT22;41723;49.326;8.430;2022-10-19T04:08:32;14.70;99.90
43673;DHT22;41723;49.326;8.430;2022-10-19T04:10:59;14.70;99.90
43673;DHT22;41723;49.326;8.430;2022-10-19T04:13:25;14.80;99.90
43673;DHT22;41723;49.326;8.430;2022-10-19T04:15:51;14.70;99.90
43673;DHT22;41723;49.326;8.430;2022-10-19T04:18:16;14.70;99.90
43673;DHT22;41723;49.326;8.430;2022-10-19T04:20:42;14.70;99.90
43673;DHT22;41723;49.326;8.430;2022-10-19T04:23:08;14.80;99.90
43673;DHT22;41723;49.326;8.430;2022-10-19T04:25:34;14.70;99.90
43673;DHT22;41723;49.326;8.430;2022-10-19T04:27:59;14.80;99.90
43673;DHT22;41723;49.326;8.430;2022-10-19T04:30:25;14.80;99.90
43673;DHT22;41723;49.326;8.430;2022-10-19T04:32:50;14.80;99.90
43673;DHT22;41723;49.326;8.430;2022-10-19T04:35:16;14.80;99.90
43673;DHT22;41723;49.326;8.430;2022-10-19T04:37:42;14.90;99.90
43673;DHT22;41723;49.326;8.430;2022-10-19T04:40:07;14.90;99.90
43673;DHT22;41723;49.326;8.430;2022-10-19T04:42:33;14.80;99.90
43673;DHT22;41723;49.326;8.430;2022-10-19T04:44:59;14.80;99.90
43673;DHT22;41723;49.326;8.430;2022-10-19T04:47:24;14.80;99.90
43673;DHT22;41723;49.326;8.430;2022-10-19T04:49:50;14.80;99.90
43673;DHT22;41723;49.326;8.430;2022-10-19T04:52:16;14.90;99.90
43673;DHT22;41723;49.326;8.430;2022-10-19T04:54:41;14.90;99.90
43673;DHT22;41723;49.326;8.430;2022-10-19T04:57:07;14.80;99.90
43673;DHT22;41723;49.326;8.430;2022-10-19T04:59:32;14.80;99.90
43673;DHT22;41723;49.326;8.430;2022-10-19T05:01:58;14.80;99.90
43673;DHT22;41723;49.326;8.430;2022-10-19T05:04:23;14.70;99.90
43673;DHT22;41723;49.326;8.430;2022-10-19T05:06:49;14.80;99.90
43673;DHT22;41723;49.326;8.430;2022-10-19T05:09:15;14.90;99.90
43673;DHT22;41723;49.326;8.430;2022-10-19T05:11:40;14.90;99.90
43673;DHT22;41723;49.326;8.430;2022-10-19T05:14:06;15.00;99.90
43673;DHT22;41723;49.326;8.430;2022-10-19T05:16:31;15.10;99.90
43673;DHT22;41723;49.326;8.430;2022-10-19T05:18:57;15.10;99.90
43673;DHT22;41723;49.326;8.430;2022-10-19T05:21:24;15.20;99.90
43673;DHT22;41723;49.326;8.430;2022-10-19T05:23:51;15.20;99.90
43673;DHT22;41723;49.326;8.430;2022-10-19T05:26:18;15.20;99.90
43673;DHT22;41723;49.326;8.430;2022-10-19T05:28:51;15.10;99.90
43673;DHT22;41723;49.326;8.430;2022-10-19T05:31:21;15.10;99.90
43673;DHT22;41723;49.326;8.430;2022-10-19T05:33:47;15.10;99.90
43673;DHT22;41723;49.326;8.430;2022-10-19T05:36:26;14.90;99.90
43673;DHT22;41723;49.326;8.430;2022-10-19T05:38:53;14.90;99.90
43673;DHT22;41723;49.326;8.430;2022-10-19T05:41:20;15.10;99.90
43673;DHT22;41723;49.326;8.430;2022-10-19T05:43:46;15.10;99.90
43673;DHT22;41723;49.326;8.430;2022-10-19T05:46:12;15.10;99.90
43673;DHT22;41723;49.326;8.430;2022-10-19T05:48:39;15.10;99.90
43673;DHT22;41723;49.326;8.430;2022-10-19T05:51:05;15.10;99.90
43673;DHT22;41723;49.326;8.430;2022-10-19T05:53:32;15.10;99.90
43673;DHT22;41723;49.326;8.430;2022-10-19T05:55:58;15.20;99.90
43673;DHT22;41723;49.326;8.430;2022-10-19T05:58:23;15.30;99.90
43673;DHT22;41723;49.326;8.430;2022-10-19T06:00:53;15.30;99.90
43673;DHT22;41723;49.326;8.430;2022-10-19T06:03:19;15.30;99.90
43673;DHT22;41723;49.326;8.430;2022-10-19T06:05:48;15.20;99.90
43673;DHT22;41723;49.326;8.430;2022-10-19T06:08:15;15.10;99.90
43673;DHT22;41723;49.326;8.430;2022-10-19T06:10:40;15.30;99.90
43673;DHT22;41723;49.326;8.430;2022-10-19T06:13:06;15.30;99.90
43673;DHT22;41723;49.326;8.430;2022-10-19T06:15:32;15.40;99.90
43673;DHT22;41723;49.326;8.430;2022-10-19T06:17:58;15.50;99.90
43673;DHT22;41723;49.326;8.430;2022-10-19T06:20:23;15.50;99.90
43673;DHT22;41723;49.326;8.430;2022-10-19T06:22:51;15.50;99.90
43673;DHT22;41723;49.326;8.430;2022-10-19T06:25:16;15.50;99.90
43673;DHT22;41723;49.326;8.430;2022-10-19T06:27:42;15.50;99.90
43673;DHT22;41723;49.326;8.430;2022-10-19T06:30:08;15.50;99.90
43673;DHT22;41723;49.326;8.430;2022-10-19T06:32:33;15.60;99.90
43673;DHT22;41723;49.326;8.430;2022-10-19T06:35:00;15.60;99.90
43673;DHT22;41723;49.326;8.430;2022-10-19T06:37:26;15.50;99.90
43673;DHT22;41723;49.326;8.430;2022-10-19T06:39:52;15.50;99.90
43673;DHT22;41723;49.326;8.430;2022-10-19T06:42:17;15.50;99.90
43673;DHT22;41723;49.326;8.430;2022-10-19T06:44:43;15.50;99.90
43673;DHT22;41723;49.326;8.430;2022-10-19T06:47:08;15.50;99.90
43673;DHT22;41723;49.326;8.430;2022-10-19T06:49:34;15.50;99.90
43673;DHT22;41723;49.326;8.430;2022-10-19T06:52:02;15.50;99.90
43673;DHT22;41723;49.326;8.430;2022-10-19T06:54:28;15.50;99.90
43673;DHT22;41723;49.326;8.430;2022-10-19T06:56:53;15.50;99.90
43673;DHT22;41723;49.326;8.430;2022-10-19T06:59:19;15.50;99.90
43673;DHT22;41723;49.326;8.430;2022-10-19T07:01:44;15.50;99.90
43673;DHT22;41723;49.326;8.430;2022-10-19T07:04:10;15.50;99.90
43673;DHT22;41723;49.326;8.430;2022-10-19T07:06:36;15.50;99.90
43673;DHT22;41723;49.326;8.430;2022-10-19T07:09:01;15.50;99.90
43673;DHT22;41723;49.326;8.430;2022-10-19T07:11:27;15.50;99.90
43673;DHT22;41723;49.326;8.430;2022-10-19T07:13:53;15.50;99.90
43673;DHT22;41723;49.326;8.430;2022-10-19T07:16:18;15.50;99.90
43673;DHT22;41723;49.326;8.430;2022-10-19T07:18:44;15.60;99.90
43673;DHT22;41723;49.326;8.430;2022-10-19T07:21:11;15.70;99.90
43673;DHT22;41723;49.326;8.430;2022-10-19T07:23:37;15.70;99.90
43673;DHT22;41723;49.326;8.430;2022-10-19T07:26:07;15.80;99.90
43673;DHT22;41723;49.326;8.430;2022-10-19T07:28:34;15.80;99.90
43673;DHT22;41723;49.326;8.430;2022-10-19T07:31:03;15.90;99.90
43673;DHT22;41723;49.326;8.430;2022-10-19T07:33:29;15.90;99.90
43673;DHT22;41723;49.326;8.430;2022-10-19T07:35:58;15.90;99.90
43673;DHT22;41723;49.326;8.430;2022-10-19T07:38:24;16.00;99.90
43673;DHT22;41723;49.326;8.430;2022-10-19T07:40:50;16.00;99.90
43673;DHT22;41723;49.326;8.430;2022-10-19T07:43:15;16.00;99.90
43673;DHT22;41723;49.326;8.430;2022-10-19T07:45:41;16.00;99.90
43673;DHT22;41723;49.326;8.430;2022-10-19T07:48:06;15.90;99.90
43673;DHT22;41723;49.326;8.430;2022-10-19T07:50:32;15.90;99.90
43673;DHT22;41723;49.326;8.430;2022-10-19T07:52:58;15.80;99.90
43673;DHT22;41723;49.326;8.430;2022-10-19T07:55:23;15.80;99.90
43673;DHT22;41723;49.326;8.430;2022-10-19T07:57:49;15.80;99.90
43673;DHT22;41723;49.326;8.430;2022-10-19T08:00:15;15.80;99.90
43673;DHT22;41723;49.326;8.430;2022-10-19T08:02:42;15.80;99.90
43673;DHT22;41723;49.326;8.430;2022-10-19T08:05:08;15.80;99.90
43673;DHT22;41723;49.326;8.430;2022-10-19T08:07:35;15.80;99.90
43673;DHT22;41723;49.326;8.430;2022-10-19T08:10:02;15.80;99.90
43673;DHT22;41723;49.326;8.430;2022-10-19T08:12:29;15.80;99.90
43673;DHT22;41723;49.326;8.430;2022-10-19T08:14:55;15.80;99.90
43673;DHT22;41723;49.326;8.430;2022-10-19T08:17:21;15.70;99.90
43673;DHT22;41723;49.326;8.430;2022-10-19T08:19:46;15.70;99.90
43673;DHT22;41723;49.326;8.430;2022-10-19T08:22:12;15.80;99.90
43673;DHT22;41723;49.326;8.430;2022-10-19T08:24:37;15.70;99.90
43673;DHT22;41723;49.326;8.430;2022-10-19T08:27:03;15.70;99.90
43673;DHT22;41723;49.326;8.430;2022-10-19T08:29:29;15.60;99.90
43673;DHT22;41723;49.326;8.430;2022-10-19T08:31:54;15.60;99.90
43673;DHT22;41723;49.326;8.430;2022-10-19T08:34:20;15.60;99.90
43673;DHT22;41723;49.326;8.430;2022-10-19T08:36:46;15.60;99.90
43673;DHT22;41723;49.326;8.430;2022-10-19T08:39:12;15.70;99.90
43673;DHT22;41723;49.326;8.430;2022-10-19T08:41:52;15.70;99.90
43673;DHT22;41723;49.326;8.430;2022-10-19T08:47:38;15.70;99.90
43673;DHT22;41723;49.326;8.430;2022-10-19T08:49:37;15.80;99.90
43673;DHT22;41723;49.326;8.430;2022-10-19T08:52:04;15.80;99.90
43673;DHT22;41723;49.326;8.430;2022-10-19T08:54:37;15.80;99.90
43673;DHT22;41723;49.326;8.430;2022-10-19T08:57:07;15.70;99.90
43673;DHT22;41723;49.326;8.430;2022-10-19T08:59:50;15.80;99.90
43673;DHT22;41723;49.326;8.430;2022-10-19T09:02:36;15.80;99.90
43673;DHT22;41723;49.326;8.430;2022-10-19T09:05:08;15.80;99.90
43673;DHT22;41723;49.326;8.430;2022-10-19T09:07:36;15.80;99.90
43673;DHT22;41723;49.326;8.430;2022-10-19T09:12:52;15.90;99.90
43673;DHT22;41723;49.326;8.430;2022-10-19T09:15:27;15.90;99.90
43673;DHT22;41723;49.326;8.430;2022-10-19T09:17:56;15.90;99.90
43673;DHT22;41723;49.326;8.430;2022-10-19T09:20:26;15.90;99.90
43673;DHT22;41723;49.326;8.430;2022-10-19T09:23:05;15.90;99.90
43673;DHT22;41723;49.326;8.430;2022-10-19T09:25:31;16.00;99.90
43673;DHT22;41723;49.326;8.430;2022-10-19T09:28:08;16.00;99.90
43673;DHT22;41723;49.326;8.430;2022-10-19T09:30:37;15.90;99.90
43673;DHT22;41723;49.326;8.430;2022-10-19T09:33:04;16.00;99.90
43673;DHT22;41723;49.326;8.430;2022-10-19T09:35:37;16.00;99.90
43673;DHT22;41723;49.326;8.430;2022-10-19T09:38:05;16.00;99.90
43673;DHT22;41723;49.326;8.430;2022-10-19T09:40:32;16.10;99.90
43673;DHT22;41723;49.326;8.430;2022-10-19T09:42:58;16.10;99.90
43673;DHT22;41723;49.326;8.430;2022-10-19T09:45:34;16.10;99.90
43673;DHT22;41723;49.326;8.430;2022-10-19T09:48:01;16.10;99.90
43673;DHT22;41723;49.326;8.430;2022-10-19T09:50:28;16.10;99.90
43673;DHT22;41723;49.326;8.430;2022-10-19T09:52:58;16.10;99.90
43673;DHT22;41723;49.326;8.430;2022-10-19T09:58:03;16.00;99.90
43673;DHT22;41723;49.326;8.430;2022-10-19T10:00:39;16.10;99.90
43673;DHT22;41723;49.326;8.430;2022-10-19T10:03:07;16.10;99.90
43673;DHT22;41723;49.326;8.430;2022-10-19T10:05:45;16.10;99.90
43673;DHT22;41723;49.326;8.430;2022-10-19T10:08:13;16.20;99.90
43673;DHT22;41723;49.326;8.430;2022-10-19T10:10:41;16.20;99.90
43673;DHT22;41723;49.326;8.430;2022-10-19T10:13:26;16.20;99.90
43673;DHT22;41723;49.326;8.430;2022-10-19T10:15:57;16.20;99.90
43673;DHT22;41723;49.326;8.430;2022-10-19T10:18:23;16.20;99.90
43673;DHT22;41723;49.326;8.430;2022-10-19T10:20:57;16.30;99.90
43673;DHT22;41723;49.326;8.430;2022-10-19T10:23:23;16.30;99.90
43673;DHT22;41723;49.326;8.430;2022-10-19T10:25:53;16.40;99.90
43673;DHT22;41723;49.326;8.430;2022-10-19T10:28:22;16.30;99.90
43673;DHT22;41723;49.326;8.430;2022-10-19T10:30:51;16.40;99.90
43673;DHT22;41723;49.326;8.430;2022-10-19T10:33:20;16.40;99.90
43673;DHT22;41723;49.326;8.430;2022-10-19T10:35:51;16.40;99.90
43673;DHT22;41723;49.326;8.430;2022-10-19T10:38:26;16.40;99.90
43673;DHT22;41723;49.326;8.430;2022-10-19T10:41:05;16.40;99.90
43673;DHT22;41723;49.326;8.430;2022-10-19T10:43:35;16.40;99.90
43673;DHT22;41723;49.326;8.430;2022-10-19T10:46:07;16.40;99.90
43673;DHT22;41723;49.326;8.430;2022-10-19T10:48:43;16.40;99.90
43673;DHT22;41723;49.326;8.430;2022-10-19T10:51:20;16.40;99.90
43673;DHT22;41723;49.326;8.430;2022-10-19T10:53:46;16.40;99.90
43673;DHT22;41723;49.326;8.430;2022-10-19T10:56:53;16.40;99.90
43673;DHT22;41723;49.326;8.430;2022-10-19T10:59:10;16.50;99.90
43673;DHT22;41723;49.326;8.430;2022-10-19T11:01:38;16.50;99.90
43673;DHT22;41723;49.326;8.430;2022-10-19T11:04:07;16.50;99.90
43673;DHT22;41723;49.326;8.430;2022-10-19T11:06:36;16.50;99.90
43673;DHT22;41723;49.326;8.430;2022-10-19T11:09:08;16.60;99.90
43673;DHT22;41723;49.326;8.430;2022-10-19T11:11:39;16.60;99.90
43673;DHT22;41723;49.326;8.430;2022-10-19T11:16:41;16.60;99.90
43673;DHT22;41723;49.326;8.430;2022-10-19T11:30:00;16.70;99.90
43673;DHT22;41723;49.326;8.430;2022-10-19T11:35:14;16.60;99.90
43673;DHT22;41723;49.326;8.430;2022-10-19T11:42:48;16.70;99.90
43673;DHT22;41723;49.326;8.430;2022-10-19T11:50:47;16.80;99.90
43673;DHT22;41723;49.326;8.430;2022-10-19T11:56:30;16.80;99.90
43673;DHT22;41723;49.326;8.430;2022-10-19T12:11:50;16.80;99.90
43673;DHT22;41723;49.326;8.430;2022-10-19T12:14:24;16.90;99.90
43673;DHT22;41723;49.326;8.430;2022-10-19T12:16:53;16.90;99.90
43673;DHT22;41723;49.326;8.430;2022-10-19T12:19:27;17.00;99.90
43673;DHT22;41723;49.326;8.430;2022-10-19T12:21:54;17.00;99.90
43673;DHT22;41723;49.326;8.430;2022-10-19T12:24:23;17.00;99.90
43673;DHT22;41723;49.326;8.430;2022-10-19T12:26:49;17.00;99.90
43673;DHT22;41723;49.326;8.430;2022-10-19T12:29:23;17.00;99.90
43673;DHT22;41723;49.326;8.430;2022-10-19T12:31:51;17.00;99.90
43673;DHT22;41723;49.326;8.430;2022-10-19T12:47:10;17.10;99.90
43673;DHT22;41723;49.326;8.430;2022-10-19T12:49:42;17.10;99.90
43673;DHT22;41723;49.326;8.430;2022-10-19T12:52:08;17.10;99.90
43673;DHT22;41723;49.326;8.430;2022-10-19T12:54:34;17.10;99.90
43673;DHT22;41723;49.326;8.430;2022-10-19T12:57:01;17.10;99.90
43673;DHT22;41723;49.326;8.430;2022-10-19T12:59:29;17.20;99.90
43673;DHT22;41723;49.326;8.430;2022-10-19T13:01:55;17.20;99.90
43673;DHT22;41723;49.326;8.430;2022-10-19T13:09:34;17.30;99.90
43673;DHT22;41723;49.326;8.430;2022-10-19T13:14:46;17.30;99.90
43673;DHT22;41723;49.326;8.430;2022-10-19T13:17:57;17.30;99.90
43673;DHT22;41723;49.326;8.430;2022-10-19T13:22:43;17.30;99.90
43673;DHT22;41723;49.326;8.430;2022-10-19T13:27:41;17.30;99.90
43673;DHT22;41723;49.326;8.430;2022-10-19T13:32:52;17.40;99.90
43673;DHT22;41723;49.326;8.430;2022-10-19T13:40:37;17.40;99.90
43673;DHT22;41723;49.326;8.430;2022-10-19T13:43:13;17.50;99.90
43673;DHT22;41723;49.326;8.430;2022-10-19T13:45:41;17.50;99.90
43673;DHT22;41723;49.326;8.430;2022-10-19T13:48:13;17.50;99.90
43673;DHT22;41723;49.326;8.430;2022-10-19T13:50:44;17.40;99.90
43673;DHT22;41723;49.326;8.430;2022-10-19T13:58:26;17.50;99.90
43673;DHT22;41723;49.326;8.430;2022-10-19T14:11:20;17.60;99.90
43673;DHT22;41723;49.326;8.430;2022-10-19T14:14:37;17.70;99.90
43673;DHT22;41723;49.326;8.430;2022-10-19T14:16:43;17.60;99.90
43673;DHT22;41723;49.326;8.430;2022-10-19T14:19:11;17.70;99.90
43673;DHT22;41723;49.326;8.430;2022-10-19T14:21:37;17.80;99.90
43673;DHT22;41723;49.326;8.430;2022-10-19T14:24:08;17.80;99.90
43673;DHT22;41723;49.326;8.430;2022-10-19T14:26:43;17.80;99.90
43673;DHT22;41723;49.326;8.430;2022-10-19T14:29:10;17.80;99.90
43673;DHT22;41723;49.326;8.430;2022-10-19T14:31:36;17.90;99.90
43673;DHT22;41723;49.326;8.430;2022-10-19T14:34:03;17.90;99.90
43673;DHT22;41723;49.326;8.430;2022-10-19T14:36:33;17.90;99.90
43673;DHT22;41723;49.326;8.430;2022-10-19T14:39:00;17.90;99.90
43673;DHT22;41723;49.326;8.430;2022-10-19T14:43:52;17.80;99.90
43673;DHT22;41723;49.326;8.430;2022-10-19T14:46:18;17.80;99.90
43673;DHT22;41723;49.326;8.430;2022-10-19T14:48:45;17.80;99.90
43673;DHT22;41723;49.326;8.430;2022-10-19T14:53:56;17.80;99.90
43673;DHT22;41723;49.326;8.430;2022-10-19T14:56:26;17.80;99.90
43673;DHT22;41723;49.326;8.430;2022-10-19T14:58:57;17.80;99.90
43673;DHT22;41723;49.326;8.430;2022-10-19T15:01:23;17.80;99.90
43673;DHT22;41723;49.326;8.430;2022-10-19T15:03:49;17.80;99.90
43673;DHT22;41723;49.326;8.430;2022-10-19T15:06:16;17.80;99.90
43673;DHT22;41723;49.326;8.430;2022-10-19T15:08:48;17.70;99.90
43673;DHT22;41723;49.326;8.430;2022-10-19T15:11:21;17.70;99.90
43673;DHT22;41723;49.326;8.430;2022-10-19T15:13:49;17.70;99.90
43673;DHT22;41723;49.326;8.430;2022-10-19T15:19:02;17.70;99.90
43673;DHT22;41723;49.326;8.430;2022-10-19T15:21:28;17.70;99.90
43673;DHT22;41723;49.326;8.430;2022-10-19T15:23:54;17.70;99.90
43673;DHT22;41723;49.326;8.430;2022-10-19T15:26:29;17.60;99.90
43673;DHT22;41723;49.326;8.430;2022-10-19T15:29:40;17.60;99.90
43673;DHT22;41723;49.326;8.430;2022-10-19T15:31:41;17.60;99.90
43673;DHT22;41723;49.326;8.430;2022-10-19T15:34:15;17.60;99.90
43673;DHT22;41723;49.326;8.430;2022-10-19T15:36:57;17.60;99.90
43673;DHT22;41723;49.326;8.430;2022-10-19T15:39:26;17.50;99.90
43673;DHT22;41723;49.326;8.430;2022-10-19T15:41:53;17.50;99.90
43673;DHT22;41723;49.326;8.430;2022-10-19T15:44:32;17.50;99.90
43673;DHT22;41723;49.326;8.430;2022-10-19T15:52:15;17.50;99.90
43673;DHT22;41723;49.326;8.430;2022-10-19T15:54:41;17.50;99.90
43673;DHT22;41723;49.326;8.430;2022-10-19T15:59:51;17.40;99.90
43673;DHT22;41723;49.326;8.430;2022-10-19T16:02:17;17.40;99.90
43673;DHT22;41723;49.326;8.430;2022-10-19T16:04:43;17.40;99.90
43673;DHT22;41723;49.326;8.430;2022-10-19T16:07:15;17.30;99.90
43673;DHT22;41723;49.326;8.430;2022-10-19T16:09:42;17.30;99.90
43673;DHT22;41723;49.326;8.430;2022-10-19T16:12:09;17.30;99.90
43673;DHT22;41723;49.326;8.430;2022-10-19T16:14:35;17.20;99.90
43673;DHT22;41723;49.326;8.430;2022-10-19T16:17:00;17.10;99.90
43673;DHT22;41723;49.326;8.430;2022-10-19T16:19:26;17.10;99.90
43673;DHT22;41723;49.326;8.430;2022-10-19T16:21:52;17.10;99.90
43673;DHT22;41723;49.326;8.430;2022-10-19T16:24:17;17.00;99.90
43673;DHT22;41723;49.326;8.430;2022-10-19T16:26:43;17.00;99.90
43673;DHT22;41723;49.326;8.430;2022-10-19T16:29:08;17.00;99.90
43673;DHT22;41723;49.326;8.430;2022-10-19T16:31:34;17.00;99.90
43673;DHT22;41723;49.326;8.430;2022-10-19T16:33:59;17.00;99.90
43673;DHT22;41723;49.326;8.430;2022-10-19T16:36:25;17.00;99.90
43673;DHT22;41723;49.326;8.430;2022-10-19T16:38:51;16.90;99.90
43673;DHT22;41723;49.326;8.430;2022-10-19T16:41:16;16.90;99.90
43673;DHT22;41723;49.326;8.430;2022-10-19T16:43:42;16.90;99.90
43673;DHT22;41723;49.326;8.430;2022-10-19T16:46:08;16.80;99.90
43673;DHT22;41723;49.326;8.430;2022-10-19T16:48:34;16.80;99.90
43673;DHT22;41723;49.326;8.430;2022-10-19T16:53:32;16.80;99.90
43673;DHT22;41723;49.326;8.430;2022-10-19T16:56:08;16.80;99.90
43673;DHT22;41723;49.326;8.430;2022-10-19T16:58:34;16.70;99.90
43673;DHT22;41723;49.326;8.430;2022-10-19T17:01:08;16.70;99.90
43673;DHT22;41723;49.326;8.430;2022-10-19T17:03:33;16.70;99.90
43673;DHT22;41723;49.326;8.430;2022-10-19T17:06:03;16.70;99.90
43673;DHT22;41723;49.326;8.430;2022-10-19T17:08:29;16.60;99.90
43673;DHT22;41723;49.326;8.430;2022-10-19T17:10:55;16.60;99.90
43673;DHT22;41723;49.326;8.430;2022-10-19T17:13:21;16.60;99.90
43673;DHT22;41723;49.326;8.430;2022-10-19T17:15:47;16.60;99.90
43673;DHT22;41723;49.326;8.430;2022-10-19T17:18:12;16.60;99.90
43673;DHT22;41723;49.326;8.430;2022-10-19T17:20:38;16.60;99.90
43673;DHT22;41723;49.326;8.430;2022-10-19T17:23:03;16.60;99.90
43673;DHT22;41723;49.326;8.430;2022-10-19T17:25:29;16.50;99.90
43673;DHT22;41723;49.326;8.430;2022-10-19T17:27:55;16.50;99.90
43673;DHT22;41723;49.326;8.430;2022-10-19T17:30:20;16.50;99.90
43673;DHT22;41723;49.326;8.430;2022-10-19T17:32:47;16.40;99.90
43673;DHT22;41723;49.326;8.430;2022-10-19T17:35:13;16.40;99.90
43673;DHT22;41723;49.326;8.430;2022-10-19T17:37:38;16.40;99.90
43673;DHT22;41723;49.326;8.430;2022-10-19T17:40:04;16.40;99.90
43673;DHT22;41723;49.326;8.430;2022-10-19T17:42:30;16.40;99.90
43673;DHT22;41723;49.326;8.430;2022-10-19T17:44:56;16.30;99.90
43673;DHT22;41723;49.326;8.430;2022-10-19T17:47:22;16.30;99.90
43673;DHT22;41723;49.326;8.430;2022-10-19T17:49:47;16.30;99.90
43673;DHT22;41723;49.326;8.430;2022-10-19T17:52:13;16.20;99.90
43673;DHT22;41723;49.326;8.430;2022-10-19T17:54:39;16.20;99.90
43673;DHT22;41723;49.326;8.430;2022-10-19T17:57:04;16.10;99.90
43673;DHT22;41723;49.326;8.430;2022-10-19T17:59:30;16.10;99.90
43673;DHT22;41723;49.326;8.430;2022-10-19T18:01:55;16.10;99.90
43673;DHT22;41723;49.326;8.430;2022-10-19T18:04:21;16.00;99.90